Terminal Aerodrome Forecast
Issued by NWS Shreveport, LA

Home | Current Version | Previous Version | Text Only | Print | Product List | Glossary On
Versions: 1 2 3 4 5 6 7 8 9 10 11 12 13
000
FTUS44 KSHV 242352
TAFTYR
TAF
KTYR 242352Z 2500/2524 VRB04KT P6SM FEW090 SCT250
     FM250200 13005KT P6SM SCT100 SCT250
     FM251600 24005KT P6SM SCT050
     FM252100 21005KT P6SM VCTS SCT050CB SCT250=

USA.gov is the U.S. government's official web portal to all federal, state and local government web resources and services.